Time;durP1;ratioP1;P1;durP2;ratioP2;P2;SDS_P1;SDS_P2;PMS_P1;PMS_P2;Temp;Humidity;BMP_temperature;BMP_pressure;BME280_temperature;BME280_humidity;BME280_pressure;Samples;Min_cycle;Max_cycle;Signal;HPM_P1;HPM_P2
2023/04/04 00:00:35;;;;;;;6.47;2.03;;;5.50;99.90;;;;;;7303678;19;20188;-76
2023/04/04 00:03:01;;;;;;;7.97;1.97;;;5.50;99.90;;;;;;7282530;19;20200;-76
2023/04/04 00:05:28;;;;;;;4.40;1.90;;;5.50;99.90;;;;;;7284339;19;20191;-76
2023/04/04 00:07:53;;;;;;;7.40;2.07;;;5.40;99.90;;;;;;7283967;19;20188;-76
2023/04/04 00:10:19;;;;;;;5.87;1.93;;;5.40;99.90;;;;;;7284266;19;20204;-76
2023/04/04 00:12:45;;;;;;;7.47;1.87;;;5.40;99.90;;;;;;7286061;19;20186;-76
2023/04/04 00:15:11;;;;;;;6.67;2.00;;;5.40;99.90;;;;;;7284221;19;20196;-76
2023/04/04 00:17:37;;;;;;;7.77;2.40;;;5.40;99.90;;;;;;7304560;19;20671;-76
2023/04/04 00:20:03;;;;;;;8.97;2.33;;;5.40;99.90;;;;;;7284398;19;20195;-76
2023/04/04 00:22:29;;;;;;;7.27;2.20;;;5.40;99.90;;;;;;7285166;19;20225;-76
2023/04/04 00:24:54;;;;;;;7.63;2.10;;;5.40;99.90;;;;;;7284430;19;20833;-76
2023/04/04 00:27:20;;;;;;;7.17;2.00;;;5.40;99.90;;;;;;7283829;19;20193;-76
2023/04/04 00:29:46;;;;;;;6.17;1.90;;;5.30;99.90;;;;;;7282191;19;20190;-76
2023/04/04 00:32:12;;;;;;;8.10;1.93;;;5.30;99.90;;;;;;7282244;19;20234;-76
2023/04/04 00:34:37;;;;;;;7.03;1.87;;;5.20;99.90;;;;;;7305187;19;20195;-76
2023/04/04 00:37:06;;;;;;;6.30;1.90;;;5.20;99.90;;;;;;7283463;19;20252;-77
2023/04/04 00:39:32;;;;;;;5.30;1.97;;;5.30;99.90;;;;;;7283135;19;20195;-76
2023/04/04 00:41:58;;;;;;;8.83;2.40;;;5.30;99.90;;;;;;7283929;19;20212;-76
2023/04/04 00:44:24;;;;;;;8.27;2.10;;;5.20;99.90;;;;;;7280860;19;20192;-77
2023/04/04 00:46:51;;;;;;;6.90;2.07;;;5.20;99.90;;;;;;7282399;19;20207;-76
2023/04/04 00:49:17;;;;;;;6.27;2.10;;;5.20;99.90;;;;;;7283480;19;20240;-77
2023/04/04 00:51:43;;;;;;;9.00;2.00;;;5.10;99.90;;;;;;7284025;19;20710;-76
2023/04/04 00:54:09;;;;;;;5.37;1.93;;;5.10;99.90;;;;;;7296169;19;20534;-76
2023/04/04 00:56:38;;;;;;;6.43;2.03;;;5.00;99.90;;;;;;7298014;19;20196;-76
2023/04/04 00:59:05;;;;;;;10.23;2.33;;;5.00;99.90;;;;;;7284087;19;20198;-76
2023/04/04 01:01:31;;;;;;;6.73;2.30;;;5.00;99.90;;;;;;7280553;19;20544;-76
2023/04/04 01:03:57;;;;;;;8.90;2.30;;;5.00;99.90;;;;;;7280401;19;20199;-76
2023/04/04 01:06:25;;;;;;;9.50;2.50;;;4.90;99.90;;;;;;7282707;19;20184;-76
2023/04/04 01:08:51;;;;;;;7.73;2.13;;;4.80;99.90;;;;;;7282775;19;20246;-77
2023/04/04 01:11:17;;;;;;;7.23;2.40;;;4.90;99.90;;;;;;7282042;19;20557;-76
2023/04/04 01:13:44;;;;;;;7.17;2.47;;;4.90;99.90;;;;;;7282154;19;20191;-76
2023/04/04 01:16:13;;;;;;;9.20;2.27;;;4.90;99.90;;;;;;7280053;19;20182;-76
2023/04/04 01:18:41;;;;;;;7.23;2.00;;;4.90;99.90;;;;;;7298047;19;20656;-76
2023/04/04 01:21:10;;;;;;;6.77;2.47;;;4.90;99.90;;;;;;7304666;19;20659;-76
2023/04/04 01:23:56;;;;;;;10.37;3.10;;;4.80;99.90;;;;;;7280930;19;20189;-77
2023/04/04 01:26:25;;;;;;;9.00;2.23;;;4.80;99.90;;;;;;7180808;19;2004435;-76
2023/04/04 01:28:53;;;;;;;10.07;2.23;;;4.70;99.90;;;;;;7281567;19;20244;-76
2023/04/04 01:31:26;;;;;;;7.40;2.40;;;4.70;99.90;;;;;;7280868;19;21032;-77
2023/04/04 01:34:40;;;;;;;7.73;2.10;;;4.70;99.90;;;;;;7282190;19;20550;-76
2023/04/04 01:37:19;;;;;;;7.87;2.27;;;4.80;99.90;;;;;;7178997;19;2004479;-75
2023/04/04 01:39:58;;;;;;;8.67;2.43;;;4.70;99.90;;;;;;7181492;19;2004458;-76
2023/04/04 01:42:25;;;;;;;9.57;2.60;;;4.60;99.90;;;;;;7280506;19;20194;-76
2023/04/04 01:44:56;;;;;;;6.57;2.30;;;4.60;99.90;;;;;;7282748;19;20197;-75
2023/04/04 01:47:24;;;;;;;6.20;2.17;;;4.60;99.90;;;;;;7286829;19;20203;-75
2023/04/04 01:49:50;;;;;;;9.37;2.43;;;4.50;99.90;;;;;;7287605;19;20530;-76
2023/04/04 01:52:17;;;;;;;6.60;2.17;;;4.50;99.90;;;;;;7288379;19;20934;-76
2023/04/04 01:54:42;;;;;;;6.43;2.20;;;4.50;99.90;;;;;;7288188;19;20188;-77
2023/04/04 01:57:08;;;;;;;7.13;2.30;;;4.60;99.90;;;;;;7311312;19;20191;-76
2023/04/04 01:59:35;;;;;;;6.93;2.37;;;4.60;99.90;;;;;;7288748;19;20640;-76
2023/04/04 02:02:00;;;;;;;9.73;2.50;;;4.60;99.90;;;;;;7287349;19;20179;-76
2023/04/04 02:04:26;;;;;;;8.97;2.43;;;4.50;99.90;;;;;;7286993;19;20209;-76
2023/04/04 02:06:52;;;;;;;8.23;2.00;;;4.50;99.90;;;;;;7287644;19;20224;-76
2023/04/04 02:09:17;;;;;;;6.60;2.13;;;4.50;99.90;;;;;;7286542;19;20181;-76
2023/04/04 02:11:45;;;;;;;6.73;2.40;;;4.40;99.90;;;;;;7286033;19;20181;-76
2023/04/04 02:14:11;;;;;;;8.10;2.43;;;4.30;99.90;;;;;;7286509;19;20177;-77
2023/04/04 02:16:37;;;;;;;7.50;2.40;;;4.30;99.90;;;;;;7308379;19;20205;-76
2023/04/04 02:19:03;;;;;;;8.30;2.77;;;4.30;99.90;;;;;;7288365;19;20194;-76
2023/04/04 02:21:34;;;;;;;10.87;3.13;;;4.30;99.90;;;;;;7287208;19;20183;-77
2023/04/04 02:24:00;;;;;;;7.83;2.90;;;4.30;99.90;;;;;;7288124;19;20670;-76
2023/04/04 02:26:26;;;;;;;7.87;3.27;;;4.30;99.90;;;;;;7287254;19;20222;-76
2023/04/04 02:28:51;;;;;;;12.27;3.07;;;4.40;99.90;;;;;;7286263;19;20191;-76
2023/04/04 02:31:17;;;;;;;8.77;3.20;;;4.30;99.90;;;;;;7286326;19;20562;-76
2023/04/04 02:33:43;;;;;;;10.43;3.17;;;4.30;99.90;;;;;;7287820;19;20188;-76
2023/04/04 02:36:10;;;;;;;8.63;3.13;;;4.30;99.90;;;;;;7303505;19;20204;-76
2023/04/04 02:38:37;;;;;;;8.33;2.60;;;4.10;99.90;;;;;;7309419;19;20765;-76
2023/04/04 02:41:04;;;;;;;9.80;2.70;;;4.00;99.90;;;;;;7286805;19;20557;-76
2023/04/04 02:43:30;;;;;;;8.50;2.50;;;3.90;99.90;;;;;;7286793;19;20257;-76
2023/04/04 02:45:56;;;;;;;11.97;2.60;;;3.90;99.90;;;;;;7286239;19;20208;-76
2023/04/04 02:48:27;;;;;;;8.87;2.80;;;3.90;99.90;;;;;;7285784;19;20195;-76
2023/04/04 02:50:57;;;;;;;6.17;2.63;;;4.00;99.90;;;;;;7286963;19;20198;-77
2023/04/04 02:53:23;;;;;;;11.07;3.20;;;4.00;99.90;;;;;;7286298;19;20285;-76
2023/04/04 02:55:52;;;;;;;9.30;2.90;;;4.10;99.90;;;;;;7284779;19;20688;-77
2023/04/04 02:58:18;;;;;;;7.70;2.60;;;4.10;99.90;;;;;;7282908;19;20235;-77
2023/04/04 03:00:53;;;;;;;9.47;3.13;;;4.00;99.90;;;;;;7286813;19;20259;-76
2023/04/04 03:03:21;;;;;;;7.23;2.60;;;4.10;99.90;;;;;;7284190;19;20256;-76
2023/04/04 03:05:48;;;;;;;6.60;2.33;;;4.10;99.90;;;;;;7285900;19;20209;-76
2023/04/04 03:08:14;;;;;;;7.27;2.57;;;4.00;99.90;;;;;;7286873;19;20208;-76
2023/04/04 03:10:40;;;;;;;8.20;3.00;;;3.80;99.90;;;;;;7293577;19;20204;-76
2023/04/04 03:13:06;;;;;;;6.83;2.53;;;3.70;99.90;;;;;;7308599;19;20583;-76
2023/04/04 03:15:35;;;;;;;8.50;2.70;;;3.70;99.90;;;;;;7285131;19;20191;-76
2023/04/04 03:18:02;;;;;;;8.17;2.90;;;3.70;99.90;;;;;;7286344;19;20192;-76
2023/04/04 03:20:30;;;;;;;8.73;2.60;;;3.70;99.90;;;;;;7287044;19;20228;-76
2023/04/04 03:22:57;;;;;;;9.83;2.73;;;3.70;99.90;;;;;;7285545;19;20195;-76
2023/04/04 03:25:23;;;;;;;6.73;2.60;;;3.70;99.90;;;;;;7285428;19;20196;-77
2023/04/04 03:27:49;;;;;;;10.43;2.87;;;3.70;99.90;;;;;;7287352;19;20560;-76
2023/04/04 03:30:23;;;;;;;9.60;2.80;;;3.70;99.90;;;;;;7285199;19;20676;-76
2023/04/04 03:32:49;;;;;;;9.47;2.80;;;3.50;99.90;;;;;;7286498;19;20185;-76
2023/04/04 03:35:15;;;;;;;10.03;3.53;;;3.50;99.90;;;;;;7283940;19;20179;-76
2023/04/04 03:37:41;;;;;;;10.63;3.13;;;3.40;99.90;;;;;;7288691;19;20242;-76
2023/04/04 03:40:08;;;;;;;9.23;2.90;;;3.30;99.90;;;;;;7307112;19;20193;-77
2023/04/04 03:42:34;;;;;;;9.67;2.90;;;3.30;99.90;;;;;;7284177;19;20187;-76
2023/04/04 03:45:03;;;;;;;9.33;2.93;;;3.20;99.90;;;;;;7286122;19;20192;-76
2023/04/04 03:47:32;;;;;;;11.03;2.90;;;3.10;99.90;;;;;;7284621;19;20194;-76
2023/04/04 03:49:59;;;;;;;8.33;3.10;;;3.10;99.90;;;;;;7283655;19;20194;-76
2023/04/04 03:52:25;;;;;;;12.70;3.43;;;3.20;99.90;;;;;;7284441;19;20197;-76
2023/04/04 03:54:51;;;;;;;9.00;3.23;;;3.20;99.90;;;;;;7284083;19;20192;-76
2023/04/04 03:57:17;;;;;;;12.13;3.50;;;3.20;99.90;;;;;;7283620;19;20555;-76
2023/04/04 03:59:42;;;;;;;11.47;3.30;;;3.20;99.90;;;;;;7286510;19;20275;-76
2023/04/04 04:02:08;;;;;;;10.47;3.43;;;3.20;99.90;;;;;;7305038;19;20186;-76
2023/04/04 04:04:34;;;;;;;11.17;3.10;;;3.10;99.90;;;;;;7284180;19;20571;-76
2023/04/04 04:07:01;;;;;;;13.30;3.20;;;3.10;99.90;;;;;;7285639;19;20197;-76
2023/04/04 04:09:27;;;;;;;8.57;3.10;;;3.00;99.90;;;;;;7283540;19;20182;-76
2023/04/04 04:11:52;;;;;;;12.20;3.10;;;3.00;99.90;;;;;;7283927;19;20647;-78
2023/04/04 04:14:18;;;;;;;12.17;3.63;;;3.00;99.90;;;;;;7284469;19;20180;-76
2023/04/04 04:16:44;;;;;;;9.93;3.00;;;3.00;99.90;;;;;;7282979;19;20185;-76
2023/04/04 04:19:14;;;;;;;11.13;3.10;;;2.90;99.90;;;;;;7285291;19;20195;-76
2023/04/04 04:21:42;;;;;;;11.23;3.43;;;3.00;99.90;;;;;;7285362;19;20186;-76
2023/04/04 04:24:08;;;;;;;18.03;3.90;;;3.10;99.90;;;;;;7306224;19;20258;-76
2023/04/04 04:26:34;;;;;;;13.93;2.80;;;3.10;99.90;;;;;;7284457;19;20180;-76
2023/04/04 04:29:01;;;;;;;11.77;3.37;;;3.10;99.90;;;;;;7283427;19;20251;-76
2023/04/04 04:31:30;;;;;;;9.93;2.93;;;3.20;99.90;;;;;;7284272;19;20545;-76
2023/04/04 04:33:56;;;;;;;8.07;2.70;;;3.30;99.90;;;;;;7283306;19;20217;-76
2023/04/04 04:36:26;;;;;;;10.57;2.73;;;3.20;99.90;;;;;;7283532;19;20188;-77
2023/04/04 04:39:00;;;;;;;12.83;2.93;;;3.20;99.90;;;;;;7284339;19;20201;-76
2023/04/04 04:41:30;;;;;;;9.07;2.63;;;3.20;99.90;;;;;;7283626;19;20227;-75
2023/04/04 04:43:55;;;;;;;8.93;3.00;;;3.20;99.90;;;;;;7283582;19;20620;-76
2023/04/04 04:46:24;;;;;;;11.00;2.80;;;3.20;99.90;;;;;;7283972;19;20193;-76
2023/04/04 04:48:50;;;;;;;8.63;3.20;;;3.20;99.90;;;;;;7283453;19;20199;-76
2023/04/04 04:51:22;;;;;;;6.90;2.70;;;3.20;99.90;;;;;;7281258;19;20196;-75
2023/04/04 04:53:51;;;;;;;10.07;2.93;;;3.20;99.90;;;;;;7282429;19;20206;-75
2023/04/04 04:56:17;;;;;;;11.33;2.70;;;3.10;99.90;;;;;;7281953;19;20212;-76
2023/04/04 04:58:47;;;;;;;8.30;2.60;;;3.10;99.90;;;;;;7282567;19;20205;-75
2023/04/04 05:01:19;;;;;;;6.43;2.80;;;3.10;99.90;;;;;;7281903;19;20264;-76
2023/04/04 05:03:45;;;;;;;9.10;2.67;;;3.00;99.90;;;;;;7283825;19;20207;-76
2023/04/04 05:06:15;;;;;;;10.77;2.90;;;3.00;99.90;;;;;;7282866;19;20194;-77
2023/04/04 05:08:42;;;;;;;10.70;2.77;;;3.10;99.90;;;;;;7283306;19;20190;-75
2023/04/04 05:11:22;;;;;;;7.87;2.57;;;3.10;99.90;;;;;;7284141;19;20261;-75
2023/04/04 05:13:48;;;;;;;7.40;2.83;;;3.20;99.90;;;;;;7287781;19;20202;-76
2023/04/04 05:16:16;;;;;;;7.93;2.90;;;3.20;99.90;;;;;;7282321;19;20180;-76
2023/04/04 05:18:45;;;;;;;10.27;3.10;;;3.20;99.90;;;;;;7280295;19;20188;-75
2023/04/04 05:21:12;;;;;;;9.80;3.20;;;3.20;99.90;;;;;;7281742;19;20198;-76
2023/04/04 05:23:37;;;;;;;11.27;3.00;;;3.20;99.90;;;;;;7304420;19;20186;-76
2023/04/04 05:26:05;;;;;;;11.07;3.40;;;3.20;99.90;;;;;;7282533;19;20204;-76
2023/04/04 05:28:34;;;;;;;11.20;3.53;;;3.20;99.90;;;;;;7282426;19;20281;-77
2023/04/04 05:31:02;;;;;;;10.40;3.23;;;3.30;99.90;;;;;;7279536;19;20324;-76
2023/04/04 05:33:30;;;;;;;9.47;3.33;;;3.30;99.90;;;;;;7283220;19;20234;-76
2023/04/04 05:36:06;;;;;;;12.27;3.43;;;3.40;99.90;;;;;;7279141;19;20198;-76
2023/04/04 05:38:38;;;;;;;8.97;3.20;;;3.40;99.90;;;;;;7283653;19;20682;-76
2023/04/04 05:41:04;;;;;;;11.60;3.10;;;3.50;99.90;;;;;;7280050;19;20185;-76
2023/04/04 05:43:30;;;;;;;9.13;2.67;;;3.50;99.90;;;;;;7282195;19;20207;-76
2023/04/04 05:46:00;;;;;;;8.93;2.77;;;3.50;99.90;;;;;;7281310;19;20180;-76
2023/04/04 05:48:28;;;;;;;9.83;3.13;;;3.70;99.90;;;;;;7282301;19;20188;-76
2023/04/04 05:50:55;;;;;;;9.43;2.70;;;4.60;99.90;;;;;;7280673;19;20307;-76
2023/04/04 05:53:33;;;;;;;6.90;2.60;;;5.70;99.90;;;;;;7280761;19;20199;-76
2023/04/04 05:56:01;;;;;;;7.93;2.87;;;6.70;99.90;;;;;;7280695;19;20217;-76
2023/04/04 05:58:29;;;;;;;7.00;2.50;;;7.40;99.90;;;;;;7281521;19;21178;-76
2023/04/04 06:01:00;;;;;;;6.80;2.80;;;8.30;99.90;;;;;;7281170;19;20253;-76
2023/04/04 06:03:27;;;;;;;8.70;3.27;;;8.90;99.90;;;;;;7278934;19;20660;-76
2023/04/04 06:05:54;;;;;;;12.63;4.47;;;9.20;99.90;;;;;;7279801;19;20189;-77
2023/04/04 06:08:21;;;;;;;6.63;3.00;;;9.30;99.90;;;;;;7278912;19;20212;-76
2023/04/04 06:10:46;;;;;;;9.33;3.30;;;9.40;99.90;;;;;;7279575;19;20187;-76
2023/04/04 06:13:12;;;;;;;7.17;2.80;;;9.60;99.90;;;;;;7281224;19;20221;-76
2023/04/04 06:15:40;;;;;;;8.83;3.33;;;9.70;99.90;;;;;;7291116;19;20565;-76
2023/04/04 06:18:06;;;;;;;9.37;3.00;;;10.10;99.90;;;;;;7298463;19;20184;-77
2023/04/04 06:20:32;;;;;;;9.13;3.10;;;9.60;99.90;;;;;;7280230;19;20276;-77
2023/04/04 06:23:00;;;;;;;11.40;3.00;;;9.10;99.90;;;;;;7279580;19;20196;-76
2023/04/04 06:25:27;;;;;;;9.00;2.63;;;8.80;99.90;;;;;;7279143;19;20192;-76
2023/04/04 06:27:58;;;;;;;8.13;2.47;;;8.30;99.90;;;;;;7278772;19;20195;-77
2023/04/04 06:30:24;;;;;;;7.63;2.73;;;7.80;99.90;;;;;;7280215;19;20288;-77
2023/04/04 06:32:51;;;;;;;10.20;2.97;;;7.50;99.90;;;;;;7284826;19;20193;-76
2023/04/04 06:35:20;;;;;;;9.33;2.83;;;7.50;99.90;;;;;;7285006;19;20188;-76
2023/04/04 06:38:00;;;;;;;9.13;3.00;;;7.00;99.90;;;;;;7286169;19;20397;-76
2023/04/04 06:40:27;;;;;;;8.60;2.83;;;6.80;99.90;;;;;;7288611;19;20193;-76
2023/04/04 06:42:57;;;;;;;10.77;2.87;;;6.70;99.90;;;;;;7287009;19;20648;-76
2023/04/04 06:45:26;;;;;;;9.43;2.40;;;6.60;99.90;;;;;;7287451;19;20191;-76
2023/04/04 06:47:53;;;;;;;8.87;2.50;;;6.70;99.90;;;;;;7287954;19;20220;-76
2023/04/04 06:50:21;;;;;;;6.70;2.67;;;7.30;99.90;;;;;;7285845;19;20248;-76
2023/04/04 06:52:47;;;;;;;7.87;2.43;;;8.40;99.90;;;;;;7286389;19;20616;-76
2023/04/04 06:55:13;;;;;;;7.00;2.63;;;9.70;99.90;;;;;;7285564;19;20182;-76
2023/04/04 06:57:40;;;;;;;9.10;2.40;;;11.60;99.90;;;;;;7305586;19;20562;-77
2023/04/04 07:00:08;;;;;;;7.57;2.30;;;12.50;99.90;;;;;;7286811;19;20266;-76
2023/04/04 07:02:33;;;;;;;7.20;2.13;;;14.00;99.90;;;;;;7282684;19;20651;-76
2023/04/04 07:04:59;;;;;;;5.97;2.17;;;13.80;99.90;;;;;;7286084;19;20236;-77
2023/04/04 07:07:25;;;;;;;6.73;2.30;;;14.20;99.90;;;;;;7287210;19;20197;-77
2023/04/04 07:09:51;;;;;;;8.73;2.00;;;14.80;99.90;;;;;;7286247;19;20650;-76
2023/04/04 07:12:17;;;;;;;9.27;2.20;;;13.70;98.00;;;;;;7287485;19;20290;-77
2023/04/04 07:14:42;;;;;;;7.03;2.07;;;13.30;99.60;;;;;;7301462;19;20211;-76
2023/04/04 07:17:08;;;;;;;6.77;2.30;;;14.30;99.40;;;;;;7298154;19;20205;-76
2023/04/04 07:19:34;;;;;;;6.10;2.00;;;15.50;96.90;;;;;;7287364;19;20213;-77
2023/04/04 07:21:59;;;;;;;7.10;2.00;;;15.50;94.00;;;;;;7285381;19;20181;-77
2023/04/04 07:24:25;;;;;;;8.63;2.10;;;14.80;92.70;;;;;;7285346;19;20208;-77
2023/04/04 07:26:51;;;;;;;7.97;2.00;;;14.10;92.30;;;;;;7284301;19;20206;-77
2023/04/04 07:29:16;;;;;;;6.43;1.80;;;13.80;92.40;;;;;;7284263;19;20203;-75
2023/04/04 07:31:42;;;;;;;8.80;2.20;;;14.00;92.90;;;;;;7286223;19;20594;-75
2023/04/04 07:34:08;;;;;;;5.93;1.80;;;14.20;93.00;;;;;;7308404;19;20195;-77
2023/04/04 07:36:34;;;;;;;6.17;2.17;;;14.70;91.30;;;;;;7283933;19;20199;-77
2023/04/04 07:38:59;;;;;;;8.67;2.00;;;14.00;90.50;;;;;;7285990;19;20208;-77
2023/04/04 07:41:26;;;;;;;7.43;1.90;;;13.80;91.50;;;;;;7285244;19;20554;-77
2023/04/04 07:43:51;;;;;;;6.07;1.90;;;13.80;91.30;;;;;;7284377;19;20191;-77
2023/04/04 07:46:17;;;;;;;5.87;1.80;;;13.20;91.40;;;;;;7284884;19;20221;-77
2023/04/04 07:48:43;;;;;;;7.73;2.03;;;13.00;90.40;;;;;;7284424;19;20183;-77
2023/04/04 07:51:09;;;;;;;3.83;1.60;;;13.90;90.70;;;;;;7306324;19;20726;-77
2023/04/04 07:53:34;;;;;;;7.33;1.97;;;14.90;90.60;;;;;;7285814;19;20192;-77
2023/04/04 07:56:05;;;;;;;10.03;2.20;;;14.70;86.50;;;;;;7283515;19;20204;-77
2023/04/04 07:58:35;;;;;;;7.37;2.00;;;13.70;88.60;;;;;;7285338;19;20210;-75
2023/04/04 08:01:04;;;;;;;7.30;1.90;;;14.20;90.10;;;;;;7284791;19;20209;-75
2023/04/04 08:03:30;;;;;;;6.90;2.50;;;14.80;87.20;;;;;;7281951;19;20181;-75
2023/04/04 08:05:55;;;;;;;7.53;2.13;;;15.20;83.40;;;;;;7285563;19;20189;-75
2023/04/04 08:08:21;;;;;;;4.70;2.00;;;15.30;83.50;;;;;;7284611;19;20198;-75
2023/04/04 08:10:48;;;;;;;5.80;2.30;;;15.40;80.80;;;;;;7282756;19;20185;-76
2023/04/04 08:13:14;;;;;;;6.70;2.17;;;15.40;81.40;;;;;;7285849;19;20191;-76
2023/04/04 08:15:40;;;;;;;6.20;2.00;;;14.80;78.60;;;;;;7305839;19;20190;-76
2023/04/04 08:18:06;;;;;;;7.77;2.50;;;14.30;81.30;;;;;;7285156;19;20198;-76
2023/04/04 08:20:31;;;;;;;7.37;2.27;;;14.20;81.30;;;;;;7285112;19;20188;-76
2023/04/04 08:22:57;;;;;;;5.77;2.20;;;14.50;80.50;;;;;;7283997;19;20200;-76
2023/04/04 08:25:23;;;;;;;7.43;2.17;;;14.60;81.10;;;;;;7284624;19;20192;-76
2023/04/04 08:27:49;;;;;;;5.67;1.77;;;15.30;80.40;;;;;;7284501;19;20192;-77
2023/04/04 08:30:15;;;;;;;8.93;2.50;;;15.80;76.90;;;;;;7284201;19;20249;-76
2023/04/04 08:32:43;;;;;;;7.23;2.30;;;15.80;74.50;;;;;;7298176;19;20240;-77
2023/04/04 08:35:08;;;;;;;5.30;2.13;;;15.40;74.10;;;;;;7304820;19;20181;-77
2023/04/04 08:37:38;;;;;;;8.50;2.10;;;15.10;75.00;;;;;;7281234;19;20561;-77
2023/04/04 08:40:05;;;;;;;7.43;1.90;;;15.40;74.10;;;;;;7284464;19;20238;-77
2023/04/04 08:42:34;;;;;;;6.73;1.90;;;16.20;71.60;;;;;;7283218;19;20279;-77
2023/04/04 08:45:05;;;;;;;7.43;2.10;;;15.80;72.30;;;;;;7285038;19;20217;-76
2023/04/04 08:47:34;;;;;;;5.97;2.10;;;15.30;72.50;;;;;;7284198;19;20194;-76
2023/04/04 08:50:04;;;;;;;5.73;2.20;;;14.80;72.80;;;;;;7283319;19;20657;-77
2023/04/04 08:52:31;;;;;;;5.30;2.23;;;14.80;74.10;;;;;;7283429;19;20664;-77
2023/04/04 08:54:57;;;;;;;9.13;2.20;;;14.70;74.70;;;;;;7281364;19;20203;-77
2023/04/04 08:57:23;;;;;;;5.07;2.07;;;15.00;74.30;;;;;;7280759;19;20197;-76
2023/04/04 08:59:49;;;;;;;9.97;2.57;;;15.80;74.60;;;;;;7283603;19;20214;-77
2023/04/04 09:02:28;;;;;;;5.50;1.90;;;15.50;72.30;;;;;;7282941;19;20227;-76
2023/04/04 09:04:55;;;;;;;9.63;2.03;;;15.20;74.30;;;;;;7282613;19;20197;-77
2023/04/04 09:07:22;;;;;;;6.90;2.10;;;15.60;72.40;;;;;;7284042;19;20706;-76
2023/04/04 09:09:49;;;;;;;5.00;1.90;;;15.20;72.10;;;;;;7281601;19;20598;-77
2023/04/04 09:12:16;;;;;;;6.57;1.97;;;15.30;72.00;;;;;;7282896;19;20202;-76
2023/04/04 09:14:43;;;;;;;4.70;2.10;;;14.40;72.50;;;;;;7291512;19;20704;-76
2023/04/04 09:17:09;;;;;;;6.40;2.00;;;14.70;75.00;;;;;;7304084;19;20196;-77
2023/04/04 09:19:38;;;;;;;6.10;2.30;;;15.10;74.20;;;;;;7282895;19;20561;-76
2023/04/04 09:22:08;;;;;;;8.73;2.20;;;15.20;71.80;;;;;;7281874;19;20294;-76
2023/04/04 09:24:41;;;;;;;7.50;2.10;;;14.70;73.00;;;;;;7281829;19;20292;-76
2023/04/04 09:27:11;;;;;;;5.33;2.00;;;14.60;74.20;;;;;;7283245;19;20194;-76
2023/04/04 09:29:38;;;;;;;6.67;2.20;;;14.00;75.50;;;;;;7282103;19;21135;-76
2023/04/04 09:32:07;;;;;;;5.07;2.10;;;13.00;77.00;;;;;;7282582;19;20193;-76
2023/04/04 09:34:34;;;;;;;7.17;2.30;;;12.10;78.60;;;;;;7282106;19;20210;-76
2023/04/04 09:36:59;;;;;;;7.03;2.27;;;11.30;81.40;;;;;;7281096;19;21611;-76
2023/04/04 09:39:26;;;;;;;5.83;1.97;;;10.50;85.00;;;;;;7282254;19;20219;-76
2023/04/04 09:41:52;;;;;;;7.03;2.07;;;10.20;86.90;;;;;;7282177;19;20211;-76
2023/04/04 09:44:17;;;;;;;5.77;2.20;;;10.10;89.50;;;;;;7281610;19;20292;-76
2023/04/04 09:46:44;;;;;;;6.70;2.10;;;10.20;88.30;;;;;;7281276;19;20234;-75
2023/04/04 09:49:22;;;;;;;6.43;2.27;;;10.10;88.50;;;;;;7300674;19;20215;-75
2023/04/04 09:51:53;;;;;;;6.83;2.60;;;10.20;87.80;;;;;;7179623;19;2004627;-76
2023/04/04 09:54:22;;;;;;;5.10;2.13;;;11.10;87.20;;;;;;7279710;19;20197;-76
2023/04/04 09:56:48;;;;;;;6.73;2.20;;;12.20;83.70;;;;;;7279208;19;20757;-76
2023/04/04 09:59:16;;;;;;;8.90;2.50;;;13.30;81.50;;;;;;7281506;19;20540;-76
2023/04/04 10:01:42;;;;;;;6.37;2.00;;;14.10;79.30;;;;;;7291946;19;20207;-77
2023/04/04 10:04:08;;;;;;;8.13;2.27;;;15.30;76.00;;;;;;7303210;19;20193;-77
2023/04/04 10:06:36;;;;;;;6.87;2.10;;;16.40;73.60;;;;;;7280915;19;20188;-77
2023/04/04 10:09:03;;;;;;;6.33;1.93;;;16.60;72.70;;;;;;7287496;19;20185;-77
2023/04/04 10:11:33;;;;;;;11.00;2.03;;;16.30;72.00;;;;;;7286141;19;20545;-76
2023/04/04 10:13:59;;;;;;;6.30;2.30;;;16.10;70.90;;;;;;7289647;19;20195;-76
2023/04/04 10:16:30;;;;;;;6.10;2.00;;;15.60;72.10;;;;;;7287204;19;20197;-76
2023/04/04 10:18:56;;;;;;;6.53;2.73;;;15.80;71.60;;;;;;7288611;19;20550;-77
2023/04/04 10:21:22;;;;;;;7.70;2.70;;;16.80;72.10;;;;;;7288000;19;20188;-77
2023/04/04 10:23:48;;;;;;;5.13;2.30;;;16.90;69.40;;;;;;7286307;19;20288;-77
2023/04/04 10:26:14;;;;;;;8.47;2.40;;;16.80;68.30;;;;;;7289034;19;20192;-77
2023/04/04 10:28:41;;;;;;;6.87;2.43;;;17.20;71.60;;;;;;7309863;19;20606;-77
2023/04/04 10:31:25;;;;;;;6.27;2.30;;;16.80;67.00;;;;;;7287815;19;20196;-77
2023/04/04 10:34:17;;;;;;;7.30;2.30;;;16.80;68.50;;;;;;7186404;19;2006072;-77
2023/04/04 10:36:47;;;;;;;5.67;2.30;;;17.70;67.50;;;;;;7265777;19;20219;-77
2023/04/04 10:39:23;;;;;;;5.53;2.30;;;17.70;62.80;;;;;;7288140;19;20196;-77
2023/04/04 10:41:51;;;;;;;6.73;2.20;;;17.00;64.60;;;;;;7287524;19;20220;-77
2023/04/04 10:44:32;;;;;;;6.63;2.40;;;16.80;66.10;;;;;;7287362;19;20188;-77
2023/04/04 10:47:06;;;;;;;6.27;2.43;;;16.60;68.10;;;;;;7287599;19;20227;-77
2023/04/04 10:49:33;;;;;;;6.97;2.13;;;17.10;67.80;;;;;;7285377;19;20191;-77
2023/04/04 10:51:59;;;;;;;8.67;2.30;;;17.10;65.70;;;;;;7285529;19;20189;-77
2023/04/04 10:54:26;;;;;;;6.70;2.03;;;17.50;65.50;;;;;;7286623;19;20467;-77
2023/04/04 10:56:53;;;;;;;6.07;2.60;;;18.30;67.40;;;;;;7285185;19;20189;-77
2023/04/04 10:59:20;;;;;;;6.30;2.33;;;18.70;64.00;;;;;;7287780;19;20285;-77
2023/04/04 11:01:54;;;;;;;5.47;2.57;;;19.00;66.30;;;;;;7285413;19;20198;-77
2023/04/04 11:04:27;;;;;;;6.03;2.40;;;19.30;64.60;;;;;;7284619;19;20228;-77
2023/04/04 11:07:13;;;;;;;8.33;2.50;;;18.60;62.30;;;;;;7286293;19;20195;-77
2023/04/04 11:09:53;;;;;;;6.63;2.57;;;18.00;62.50;;;;;;7285713;19;20190;-77
2023/04/04 11:12:27;;;;;;;6.70;2.33;;;17.00;64.40;;;;;;7182566;19;2004981;-77
2023/04/04 11:15:02;;;;;;;6.60;2.40;;;17.90;65.70;;;;;;7286064;19;20193;-77
2023/04/04 11:17:55;;;;;;;5.10;2.50;;;18.60;62.70;;;;;;7284685;19;20631;-77
2023/04/04 11:20:28;;;;;;;8.93;2.60;;;18.50;61.60;;;;;;7181813;19;2004605;-76
2023/04/04 11:23:05;;;;;;;6.10;2.27;;;18.10;61.40;;;;;;7284612;19;20213;-77
2023/04/04 11:25:36;;;;;;;7.83;2.40;;;17.80;61.90;;;;;;7286671;19;20193;-77
2023/04/04 11:28:13;;;;;;;6.97;2.77;;;18.60;61.70;;;;;;7287570;19;20199;-77
2023/04/04 11:30:47;;;;;;;8.70;2.63;;;18.10;62.50;;;;;;7286663;19;20241;-77
2023/04/04 11:33:25;;;;;;;6.40;2.43;;;17.70;61.30;;;;;;7267741;19;20192;-76
2023/04/04 11:35:51;;;;;;;7.07;2.37;;;17.60;60.20;;;;;;7285534;19;20185;-76
2023/04/04 11:38:19;;;;;;;7.70;2.60;;;17.70;62.10;;;;;;7286670;19;20192;-76
2023/04/04 11:40:53;;;;;;;8.30;2.83;;;17.60;62.30;;;;;;7285833;19;20190;-76
2023/04/04 11:43:19;;;;;;;7.47;2.80;;;18.10;62.50;;;;;;7285933;19;20302;-77
2023/04/04 11:45:46;;;;;;;9.20;2.50;;;18.60;61.20;;;;;;7286252;19;20185;-77
2023/04/04 11:48:14;;;;;;;7.47;2.40;;;18.20;60.90;;;;;;7299568;19;20311;-77
2023/04/04 11:50:40;;;;;;;5.47;2.57;;;17.90;61.10;;;;;;7306053;19;20259;-78
2023/04/04 11:53:11;;;;;;;7.63;2.60;;;17.00;59.40;;;;;;7286017;19;20280;-77
2023/04/04 11:55:41;;;;;;;8.13;2.70;;;17.50;59.60;;;;;;7285228;19;20189;-77
2023/04/04 11:58:11;;;;;;;6.73;2.63;;;17.60;60.00;;;;;;7286281;19;20211;-77
2023/04/04 12:00:38;;;;;;;6.50;2.50;;;17.40;61.40;;;;;;7284809;19;20671;-78
2023/04/04 12:03:12;;;;;;;7.07;2.60;;;17.50;60.60;;;;;;7284598;19;20698;-77
2023/04/04 12:05:40;;;;;;;7.83;2.80;;;18.30;61.70;;;;;;7284268;19;20189;-77
2023/04/04 12:08:07;;;;;;;7.60;3.00;;;19.10;59.20;;;;;;7284691;19;20656;-77
2023/04/04 12:10:34;;;;;;;10.20;3.20;;;18.90;59.70;;;;;;7283688;19;20193;-77
2023/04/04 12:13:01;;;;;;;11.70;3.27;;;19.00;60.70;;;;;;7284660;19;20185;-77
2023/04/04 12:15:28;;;;;;;7.57;2.90;;;18.70;59.10;;;;;;7284001;19;20200;-77
2023/04/04 12:17:54;;;;;;;9.40;3.17;;;18.70;59.20;;;;;;7284608;19;20636;-77
2023/04/04 12:20:23;;;;;;;8.40;3.20;;;18.80;58.90;;;;;;7284354;19;20185;-77
2023/04/04 12:22:50;;;;;;;8.90;3.30;;;18.20;59.70;;;;;;7284909;19;20193;-77
2023/04/04 12:25:20;;;;;;;8.17;2.90;;;18.00;58.80;;;;;;7284211;19;20621;-77
2023/04/04 12:27:48;;;;;;;7.93;3.20;;;18.20;59.20;;;;;;7284329;19;20225;-77
2023/04/04 12:30:15;;;;;;;7.00;2.80;;;18.70;61.70;;;;;;7282988;19;20212;-77
2023/04/04 12:32:44;;;;;;;8.23;3.10;;;18.40;60.20;;;;;;7304610;19;20189;-77
2023/04/04 12:35:12;;;;;;;7.90;3.00;;;17.60;60.20;;;;;;7285674;19;20184;-77
2023/04/04 12:37:39;;;;;;;7.63;3.00;;;17.30;61.90;;;;;;7284094;19;20658;-77
2023/04/04 12:40:06;;;;;;;7.33;3.10;;;17.90;62.80;;;;;;7284255;19;20186;-77
2023/04/04 12:42:33;;;;;;;7.77;3.20;;;18.10;64.00;;;;;;7283284;19;20226;-77
2023/04/04 12:45:02;;;;;;;10.87;2.97;;;17.90;63.90;;;;;;7283928;19;20570;-76
2023/04/04 12:47:30;;;;;;;6.20;2.70;;;17.90;64.90;;;;;;7283018;19;20252;-77
2023/04/04 12:49:56;;;;;;;7.33;2.97;;;17.10;62.30;;;;;;7282301;19;20188;-77
2023/04/04 12:52:31;;;;;;;11.87;3.40;;;15.80;66.40;;;;;;7284638;19;20267;-77
2023/04/04 12:55:08;;;;;;;8.43;2.77;;;15.00;67.80;;;;;;7281837;19;20211;-77